Time;durP1;ratioP1;P1;durP2;ratioP2;P2;SDS_P1;SDS_P2;PMS_P1;PMS_P2;Temp;Humidity;BMP_temperature;BMP_pressure;BME280_temperature;BME280_humidity;BME280_pressure;Samples;Min_cycle;Max_cycle;Signal;HPM_P1;HPM_P2
2023/10/08 00:01:21;;;;;;;12.50;8.90;;;;;;;14.68;100.00;97542.71;107092;1277;23338;-88
2023/10/08 00:03:50;;;;;;;10.80;8.80;;;;;;;14.57;100.00;97542.96;107164;1277;22543;-88
2023/10/08 00:06:21;;;;;;;10.20;8.10;;;;;;;14.45;100.00;97537.70;107169;1273;22585;-88
2023/10/08 00:08:50;;;;;;;13.50;9.00;;;;;;;14.41;100.00;97538.48;107122;1277;22650;-88
2023/10/08 00:11:18;;;;;;;11.40;8.30;;;;;;;14.31;100.00;97540.75;107053;1277;22538;-87
2023/10/08 00:13:48;;;;;;;10.10;7.20;;;;;;;14.22;100.00;97544.61;107101;1277;25494;-87
2023/10/08 00:16:17;;;;;;;12.00;6.50;;;;;;;14.16;100.00;97553.27;107152;1277;26664;-87
2023/10/08 00:18:49;;;;;;;7.50;5.10;;;;;;;14.12;100.00;97553.93;107207;1277;24199;-87
2023/10/08 00:21:27;;;;;;;4.20;3.40;;;;;;;14.01;100.00;97553.42;108654;1277;22581;-86
2023/10/08 00:23:58;;;;;;;6.20;3.00;;;;;;;13.87;100.00;97554.74;109026;1277;22531;-88
2023/10/08 00:26:31;;;;;;;2.80;2.60;;;;;;;13.73;100.00;97556.51;107662;1277;25484;-88
2023/10/08 00:29:18;;;;;;;2.20;2.00;;;;;;;13.61;100.00;97550.48;106832;1277;25605;-87
2023/10/08 00:31:47;;;;;;;1.70;1.60;;;;;;;13.49;100.00;97546.95;106842;1277;22521;-86
2023/10/08 00:34:19;;;;;;;2.40;1.80;;;;;;;13.34;100.00;97544.15;107070;1277;24273;-88
2023/10/08 00:36:48;;;;;;;2.60;2.40;;;;;;;13.28;100.00;97540.45;107371;1277;22717;-86
2023/10/08 00:39:24;;;;;;;1.80;1.60;;;;;;;13.22;100.00;97537.84;107319;1277;25927;-90
2023/10/08 00:41:58;;;;;;;1.90;1.60;;;;;;;13.18;100.00;97538.15;109180;1277;22539;-86
2023/10/08 00:44:35;;;;;;;2.20;2.00;;;;;;;13.15;100.00;97545.27;108896;1277;24212;-88
2023/10/08 00:47:05;;;;;;;1.80;1.70;;;;;;;13.13;100.00;97544.27;109474;1277;22912;-87
2023/10/08 00:57:21;;;;;;;1.90;1.80;;;;;;;13.08;100.00;97542.31;107118;1277;25319;-89
2023/10/08 00:59:53;;;;;;;2.80;2.00;;;;;;;13.08;100.00;97547.79;107427;1277;22566;-89
2023/10/08 01:02:28;;;;;;;2.20;1.80;;;;;;;13.08;100.00;97546.48;106980;1277;24212;-89
2023/10/08 01:04:57;;;;;;;2.60;2.10;;;;;;;13.07;100.00;97540.09;107206;1277;25401;-91
2023/10/08 01:07:27;;;;;;;2.10;1.80;;;;;;;13.02;100.00;97536.73;106983;1277;22625;-88
2023/10/08 01:10:00;;;;;;;2.30;2.00;;;;;;;13.00;100.00;97542.82;107122;1277;24227;-88
2023/10/08 01:12:33;;;;;;;1.90;1.80;;;;;;;13.00;100.00;97546.28;107151;1277;22539;-89
2023/10/08 01:15:23;;;;;;;2.60;2.30;;;;;;;12.98;100.00;97544.13;107069;1277;26640;-88
2023/10/08 01:17:58;;;;;;;1.60;1.50;;;;;;;12.95;100.00;97538.60;107053;1277;22716;-90
2023/10/08 01:20:34;;;;;;;1.70;1.60;;;;;;;12.92;100.00;97542.59;107167;1277;22538;-90
2023/10/08 01:23:10;;;;;;;2.00;1.90;;;;;;;12.91;100.00;97544.91;107408;1277;24237;-89
2023/10/08 01:25:43;;;;;;;2.00;1.80;;;;;;;12.88;100.00;97539.39;107028;1277;22657;-90
2023/10/08 01:28:25;;;;;;;2.10;1.90;;;;;;;12.85;100.00;97541.17;107138;1277;23501;-90
2023/10/08 01:30:54;;;;;;;2.10;1.90;;;;;;;12.84;100.00;97545.48;107158;1277;23637;-89
2023/10/08 01:33:26;;;;;;;2.50;2.10;;;;;;;12.61;100.00;97547.13;106994;1277;24279;-89
2023/10/08 01:35:55;;;;;;;1.90;1.70;;;;;;;12.40;100.00;97548.93;107133;1277;24187;-91
2023/10/08 01:38:26;;;;;;;2.30;2.00;;;;;;;12.22;100.00;97545.79;107126;1277;24202;-90
2023/10/08 01:40:55;;;;;;;2.40;2.20;;;;;;;12.13;100.00;97550.01;107159;1277;22528;-89
2023/10/08 01:43:27;;;;;;;2.60;2.20;;;;;;;11.99;100.00;97545.34;107062;1254;22574;-91
2023/10/08 01:45:56;;;;;;;2.80;2.40;;;;;;;11.90;100.00;97547.73;107170;1277;25303;-88
2023/10/08 01:48:28;;;;;;;3.80;2.70;;;;;;;11.71;100.00;97543.16;107141;1277;22603;-89
2023/10/08 01:51:01;;;;;;;2.40;2.10;;;;;;;11.57;100.00;97553.73;107072;1277;22537;-88
2023/10/08 01:53:30;;;;;;;3.50;3.00;;;;;;;11.45;100.00;97570.80;107138;1277;22692;-89
2023/10/08 01:55:59;;;;;;;4.10;3.10;;;;;;;11.26;100.00;97575.13;107162;1277;25334;-88
2023/10/08 01:58:26;;;;;;;3.00;2.70;;;;;;;11.08;100.00;97567.47;107070;1277;22530;-88
2023/10/08 02:00:58;;;;;;;3.00;2.80;;;;;;;10.92;100.00;97561.14;107093;1277;25373;-88
2023/10/08 02:03:27;;;;;;;3.10;2.50;;;;;;;10.75;100.00;97563.70;107068;1277;23604;-88
2023/10/08 02:05:59;;;;;;;18.00;16.30;;;;;;;10.60;100.00;97560.52;107039;1277;25421;-88
2023/10/08 02:08:30;;;;;;;2.90;2.60;;;;;;;10.46;100.00;97569.14;107234;1277;24381;-90
2023/10/08 02:10:58;;;;;;;3.70;2.80;;;;;;;10.35;100.00;97581.48;107757;1277;22527;-90
2023/10/08 02:13:26;;;;;;;5.70;3.80;;;;;;;10.24;100.00;97571.42;108483;1277;22587;-89
2023/10/08 02:15:54;;;;;;;12.80;10.20;;;;;;;10.15;100.00;97568.61;108705;1277;22500;-88
2023/10/08 02:18:23;;;;;;;5.70;4.10;;;;;;;10.12;100.00;97574.85;108160;1277;22580;-88
2023/10/08 02:20:52;;;;;;;5.90;4.00;;;;;;;10.06;100.00;97573.81;107309;1277;22646;-91
2023/10/08 02:23:23;;;;;;;7.30;6.50;;;;;;;9.97;100.00;97584.16;107213;1277;25581;-87
2023/10/08 02:25:51;;;;;;;6.70;4.80;;;;;;;9.91;100.00;97575.26;106945;1277;22524;-88
2023/10/08 02:28:20;;;;;;;5.30;4.00;;;;;;;9.84;100.00;97576.65;107117;1277;24003;-88
2023/10/08 02:30:48;;;;;;;7.20;3.00;;;;;;;9.77;100.00;97572.60;107074;1277;25246;-87
2023/10/08 02:33:17;;;;;;;7.10;5.70;;;;;;;9.70;100.00;97584.95;107262;1277;22540;-88
2023/10/08 02:35:47;;;;;;;2.90;2.60;;;;;;;9.64;100.00;97596.77;107129;1277;22520;-88
2023/10/08 02:38:18;;;;;;;5.60;3.80;;;;;;;9.60;100.00;97609.04;107306;1277;25347;-87
2023/10/08 02:40:47;;;;;;;7.70;6.00;;;;;;;9.53;100.00;97597.50;107281;1277;24253;-87
2023/10/08 02:43:17;;;;;;;7.70;7.00;;;;;;;9.46;100.00;97592.38;108923;1277;24308;-88
2023/10/08 02:45:49;;;;;;;5.20;4.30;;;;;;;9.43;100.00;97588.08;109683;1277;22556;-88
2023/10/08 02:48:20;;;;;;;7.40;6.30;;;;;;;9.38;100.00;97589.57;109129;1277;22527;-88
2023/10/08 02:50:49;;;;;;;6.40;5.70;;;;;;;9.38;100.00;97594.99;107180;1277;25246;-88
2023/10/08 02:53:23;;;;;;;8.80;6.70;;;;;;;9.36;100.00;97598.63;107227;1277;25291;-89
2023/10/08 02:55:52;;;;;;;4.00;3.40;;;;;;;9.34;100.00;97609.27;107113;1277;25290;-89
2023/10/08 02:58:20;;;;;;;5.10;4.00;;;;;;;9.30;100.00;97621.48;107703;1277;23009;-89
2023/10/08 03:00:49;;;;;;;4.00;3.20;;;;;;;9.27;100.00;97610.04;108884;1277;22524;-89
2023/10/08 03:03:18;;;;;;;5.90;5.40;;;;;;;9.27;100.00;97607.23;107058;1277;22692;-88
2023/10/08 03:05:50;;;;;;;4.80;3.40;;;;;;;9.28;100.00;97615.04;106867;1277;24219;-90
2023/10/08 03:08:23;;;;;;;6.10;5.50;;;;;;;9.25;100.00;97612.02;106900;1277;23397;-87
2023/10/08 03:10:55;;;;;;;4.20;3.80;;;;;;;9.22;100.00;97614.64;107058;1277;25811;-92
2023/10/08 03:13:26;;;;;;;5.10;3.80;;;;;;;9.20;100.00;97629.58;107174;1277;22543;-88
2023/10/08 03:18:35;;;;;;;6.20;5.10;;;;;;;9.09;100.00;97639.77;107122;1277;22620;-87
2023/10/08 03:21:19;;;;;;;6.00;5.10;;;;;;;9.07;100.00;97633.08;107150;1277;25457;-91
2023/10/08 03:23:52;;;;;;;8.10;4.40;;;;;;;9.07;100.00;97619.44;107086;1277;22909;-91
2023/10/08 03:26:33;;;;;;;8.10;7.30;;;;;;;9.08;100.00;97626.60;107075;1277;25532;-90
2023/10/08 03:29:15;;;;;;;6.30;3.90;;;;;;;9.14;100.00;97633.44;107014;1277;22532;-90
2023/10/08 03:34:19;;;;;;;2.80;2.50;;;;;;;9.16;100.00;97643.05;107157;1277;22666;-88
2023/10/08 03:36:50;;;;;;;2.40;2.20;;;;;;;9.12;100.00;97633.73;107175;1277;25226;-89
2023/10/08 03:39:18;;;;;;;2.30;2.10;;;;;;;9.09;100.00;97640.14;107075;1277;22599;-89
2023/10/08 03:42:07;;;;;;;3.30;3.00;;;;;;;9.05;100.00;97644.99;106957;1277;23596;-89
2023/10/08 03:44:37;;;;;;;3.00;2.70;;;;;;;9.04;100.00;97669.04;107159;1277;22534;-88
2023/10/08 03:47:10;;;;;;;2.60;2.40;;;;;;;9.02;100.00;97687.40;107149;1277;22536;-88
2023/10/08 03:49:45;;;;;;;2.60;2.40;;;;;;;8.99;100.00;97693.15;107238;1277;22483;-87
2023/10/08 03:52:13;;;;;;;2.70;2.50;;;;;;;8.95;100.00;97694.02;107416;1277;22519;-88
2023/10/08 03:54:48;;;;;;;2.90;2.70;;;;;;;8.94;100.00;97705.75;107046;1277;22524;-89
2023/10/08 03:57:25;;;;;;;2.80;2.60;;;;;;;8.94;100.00;97701.70;107213;1277;25508;-88
2023/10/08 03:59:58;;;;;;;2.80;2.60;;;;;;;8.93;100.00;97710.54;107062;1277;22552;-91
2023/10/08 04:02:40;;;;;;;3.00;2.80;;;;;;;8.91;100.00;97719.77;107101;1277;25287;-89
2023/10/08 04:05:18;;;;;;;2.70;2.40;;;;;;;8.92;100.00;97724.59;108025;1277;22603;-86
2023/10/08 04:13:09;;;;;;;3.20;2.90;;;;;;;8.86;100.00;97718.70;107063;1277;24340;-87
2023/10/08 04:15:41;;;;;;;3.50;2.90;;;;;;;8.79;100.00;97731.11;107615;1277;25304;-90
2023/10/08 04:18:13;;;;;;;5.30;3.60;;;;;;;8.74;100.00;97745.31;108025;1277;25373;-88
2023/10/08 04:21:00;;;;;;;5.40;3.50;;;;;;;8.70;100.00;97752.30;107875;1277;25495;-91
2023/10/08 04:23:29;;;;;;;3.90;2.70;;;;;;;8.66;100.00;97747.32;107120;1277;25294;-88
2023/10/08 04:25:58;;;;;;;5.20;3.00;;;;;;;8.62;100.00;97760.47;107116;1277;22520;-89
2023/10/08 04:28:34;;;;;;;5.70;3.40;;;;;;;8.59;100.00;97785.42;107043;1277;25369;-88
2023/10/08 04:31:14;;;;;;;4.50;3.30;;;;;;;8.55;100.00;97795.30;107202;1277;24048;-89
2023/10/08 04:33:44;;;;;;;4.90;3.00;;;;;;;8.50;100.00;97787.55;107149;1277;25246;-89
2023/10/08 04:36:18;;;;;;;4.90;3.40;;;;;;;8.45;100.00;97780.88;107103;1277;22534;-88
2023/10/08 04:38:54;;;;;;;4.10;3.10;;;;;;;8.41;100.00;97779.86;107140;1254;22983;-89
2023/10/08 04:41:28;;;;;;;4.40;2.80;;;;;;;8.43;100.00;97789.27;107147;1277;22565;-87
2023/10/08 04:43:56;;;;;;;5.30;3.00;;;;;;;8.44;100.00;97792.61;106850;1259;23212;-88
2023/10/08 04:49:19;;;;;;;4.30;2.90;;;;;;;8.37;100.00;97791.16;107001;1277;22812;-88
2023/10/08 04:51:48;;;;;;;5.70;3.60;;;;;;;8.36;100.00;97791.39;107022;1277;22676;-88
2023/10/08 04:54:16;;;;;;;4.90;3.20;;;;;;;8.34;100.00;97801.96;106926;1277;22626;-88
2023/10/08 04:56:44;;;;;;;6.00;3.10;;;;;;;8.33;100.00;97806.17;106951;1277;24276;-86
2023/10/08 04:59:12;;;;;;;7.10;3.50;;;;;;;8.32;100.00;97823.69;107239;1277;22493;-88
2023/10/08 05:01:47;;;;;;;5.60;3.40;;;;;;;8.31;100.00;97831.92;107727;1277;22555;-89
2023/10/08 05:34:16;;;;;;;11.90;4.80;;;;;;;8.41;100.00;97868.56;107216;1277;23886;-88
2023/10/08 05:37:10;;;;;;;13.30;6.50;;;;;;;8.41;100.00;97909.64;107022;1277;22766;-87
2023/10/08 05:42:20;;;;;;;10.80;4.80;;;;;;;8.45;100.00;97909.39;107094;1277;26522;-88
2023/10/08 05:45:14;;;;;;;12.40;4.30;;;;;;;8.46;100.00;97913.95;107049;1277;25497;-89
2023/10/08 05:52:53;;;;;;;10.80;5.70;;;;;;;8.47;100.00;97948.73;107118;1277;22610;-88
2023/10/08 05:55:25;;;;;;;14.50;6.50;;;;;;;8.49;100.00;97948.93;106936;1277;22562;-90
2023/10/08 05:58:13;;;;;;;10.60;6.30;;;;;;;8.47;100.00;97959.31;106865;1266;251184;-89
2023/10/08 06:01:06;;;;;;;10.10;5.80;;;;;;;8.50;100.00;97969.92;107125;1277;24232;-89
2023/10/08 06:03:39;;;;;;;10.40;6.20;;;;;;;8.51;100.00;97985.71;107093;1269;23200;-88
2023/10/08 06:08:51;;;;;;;10.30;5.80;;;;;;;8.54;100.00;97962.31;106881;1277;24378;-87
2023/10/08 06:17:34;;;;;;;6.70;4.00;;;;;;;8.60;100.00;97976.98;106878;1277;25370;-88
2023/10/08 06:20:10;;;;;;;6.80;4.20;;;;;;;8.62;100.00;97991.08;107038;1277;25426;-90
2023/10/08 06:22:38;;;;;;;4.70;3.40;;;;;;;8.63;100.00;98004.66;107257;1277;25245;-91
2023/10/08 06:25:17;;;;;;;6.40;3.80;;;;;;;8.65;100.00;98008.84;107061;1277;22756;-90
2023/10/08 06:27:45;;;;;;;3.50;3.20;;;;;;;8.71;100.00;98021.56;106954;1277;22779;-89
2023/10/08 06:30:16;;;;;;;7.80;4.00;;;;;;;8.73;100.00;98029.23;106999;1277;22568;-90
2023/10/08 06:32:45;;;;;;;5.30;3.60;;;;;;;8.74;100.00;98031.59;107079;1277;22534;-89
2023/10/08 06:35:17;;;;;;;4.90;3.10;;;;;;;8.71;100.00;98041.61;107101;1277;22538;-89
2023/10/08 06:37:49;;;;;;;5.50;3.40;;;;;;;8.70;100.00;98039.52;107163;1277;24219;-90
2023/10/08 06:43:21;;;;;;;5.60;3.20;;;;;;;8.75;100.00;98040.13;106934;1277;23347;-88
2023/10/08 06:45:53;;;;;;;5.90;4.50;;;;;;;8.74;100.00;98043.13;107195;1277;22528;-87
2023/10/08 06:48:24;;;;;;;8.90;5.00;;;;;;;8.74;100.00;98049.21;106994;1277;24383;-90
2023/10/08 06:51:07;;;;;;;8.80;5.30;;;;;;;8.76;100.00;98063.21;107137;1277;24809;-91
2023/10/08 06:53:38;;;;;;;7.00;4.50;;;;;;;8.78;100.00;98064.65;107066;1277;25300;-88
2023/10/08 06:56:09;;;;;;;7.20;5.00;;;;;;;8.81;100.00;98076.55;107029;1277;25135;-90
2023/10/08 06:58:39;;;;;;;7.50;5.20;;;;;;;8.83;100.00;98080.40;107291;1277;22602;-90
2023/10/08 07:01:08;;;;;;;7.40;5.30;;;;;;;8.83;100.00;98087.50;107547;1277;22538;-89
2023/10/08 07:03:39;;;;;;;8.80;5.40;;;;;;;8.80;100.00;98101.49;107116;1277;22816;-88
2023/10/08 07:06:16;;;;;;;7.50;4.90;;;;;;;8.76;100.00;98095.61;106909;1277;24329;-91
2023/10/08 07:08:54;;;;;;;8.20;5.20;;;;;;;8.77;100.00;98096.09;107179;1277;22532;-87
2023/10/08 07:11:23;;;;;;;7.50;5.30;;;;;;;8.76;100.00;98099.70;107132;1277;24226;-89
2023/10/08 07:13:51;;;;;;;9.50;5.20;;;;;;;8.73;100.00;98101.29;107104;1277;25400;-89
2023/10/08 07:16:20;;;;;;;7.80;5.00;;;;;;;8.73;100.00;98107.09;107100;1277;25320;-88
2023/10/08 07:18:52;;;;;;;9.50;5.10;;;;;;;8.74;100.00;98116.27;106952;1277;22535;-88
2023/10/08 07:21:28;;;;;;;10.70;5.50;;;;;;;8.73;100.00;98115.04;107180;1277;25344;-87
2023/10/08 07:24:01;;;;;;;8.30;4.70;;;;;;;8.70;100.00;98120.44;108293;1277;25293;-88
2023/10/08 07:26:46;;;;;;;7.50;5.30;;;;;;;8.69;100.00;98124.58;109476;1275;22532;-88
2023/10/08 07:29:17;;;;;;;9.00;5.40;;;;;;;8.74;100.00;98132.72;107873;1277;23158;-88
2023/10/08 07:31:50;;;;;;;7.90;4.90;;;;;;;8.77;100.00;98131.93;107177;1277;22521;-89
2023/10/08 07:36:52;;;;;;;9.40;5.90;;;;;;;8.91;100.00;98142.23;107090;1277;25416;-87
2023/10/08 07:42:05;;;;;;;7.50;4.10;;;;;;;8.97;100.00;98154.61;107038;1277;22562;-88
2023/10/08 07:44:38;;;;;;;7.20;4.40;;;;;;;8.97;100.00;98144.89;107332;1277;22579;-89
2023/10/08 07:47:13;;;;;;;6.60;4.50;;;;;;;8.97;100.00;98145.16;107248;1277;23080;-93
2023/10/08 07:49:44;;;;;;;8.70;5.90;;;;;;;8.98;100.00;98148.48;107084;1277;25392;-88
2023/10/08 07:52:15;;;;;;;8.50;4.90;;;;;;;9.01;100.00;98156.02;106961;1277;25580;-90
2023/10/08 07:54:44;;;;;;;5.60;4.30;;;;;;;9.01;100.00;98164.09;107264;1277;22768;-91
2023/10/08 07:57:17;;;;;;;6.60;4.30;;;;;;;9.05;100.00;98162.02;107541;1277;24188;-89
2023/10/08 07:59:54;;;;;;;7.30;5.00;;;;;;;9.12;100.00;98165.40;107095;1277;22768;-89
2023/10/08 08:02:27;;;;;;;6.80;4.70;;;;;;;9.09;100.00;98168.16;107041;1277;24637;-89
2023/10/08 08:04:55;;;;;;;7.60;4.70;;;;;;;9.08;100.00;98170.64;108882;1277;22871;-87
2023/10/08 08:07:24;;;;;;;7.10;4.60;;;;;;;9.04;100.00;98177.94;109371;1277;22597;-89
2023/10/08 08:10:04;;;;;;;6.70;5.10;;;;;;;9.03;100.00;98180.37;108976;1278;25410;-88
2023/10/08 08:12:32;;;;;;;9.10;6.20;;;;;;;9.02;100.00;98184.45;107941;1277;22675;-87
2023/10/08 08:15:03;;;;;;;12.70;8.10;;;;;;;9.04;100.00;98191.91;107126;1277;22532;-89
2023/10/08 08:17:33;;;;;;;10.00;5.60;;;;;;;9.06;100.00;98199.59;107153;1275;24375;-90
2023/10/08 08:20:17;;;;;;;10.60;5.40;;;;;;;9.04;100.00;98214.06;107100;1277;25255;-90
2023/10/08 08:22:54;;;;;;;8.60;5.70;;;;;;;9.03;100.00;98214.17;107131;1277;24159;-89
2023/10/08 08:25:42;;;;;;;12.20;6.10;;;;;;;9.17;100.00;98215.79;107054;1277;22767;-89
2023/10/08 08:28:20;;;;;;;10.00;6.50;;;;;;;9.36;100.00;98214.83;107067;1277;22801;-88
2023/10/08 08:30:52;;;;;;;11.00;6.00;;;;;;;9.62;100.00;98218.77;107121;1277;24235;-87
2023/10/08 08:33:24;;;;;;;9.50;6.10;;;;;;;9.83;100.00;98217.21;107068;1277;23314;-90
2023/10/08 08:36:00;;;;;;;10.60;6.40;;;;;;;10.04;100.00;98211.71;107070;1277;22768;-87
2023/10/08 08:38:32;;;;;;;12.70;6.80;;;;;;;10.02;100.00;98215.07;107221;1277;25130;-88
2023/10/08 08:41:06;;;;;;;10.20;5.70;;;;;;;10.01;100.00;98207.91;107117;1277;24212;-88
2023/10/08 08:43:36;;;;;;;9.00;6.40;;;;;;;10.01;100.00;98207.96;107158;1277;22532;-90
2023/10/08 08:46:07;;;;;;;11.10;6.20;;;;;;;10.13;100.00;98209.45;107110;1277;23349;-87
2023/10/08 08:48:40;;;;;;;10.30;6.00;;;;;;;10.26;100.00;98216.63;106999;1277;22472;-93
2023/10/08 08:51:09;;;;;;;9.70;5.50;;;;;;;10.39;100.00;98216.59;107147;1277;22760;-87
2023/10/08 08:53:37;;;;;;;10.00;5.90;;;;;;;10.62;100.00;98222.46;107166;1277;22597;-89
2023/10/08 08:56:09;;;;;;;9.10;5.50;;;;;;;10.74;100.00;98229.53;107095;1277;23984;-90
2023/10/08 08:58:38;;;;;;;7.30;5.40;;;;;;;10.64;100.00;98236.23;107063;1277;22534;-90
2023/10/08 09:01:09;;;;;;;12.60;5.70;;;;;;;10.49;100.00;98235.24;107132;1277;24218;-89
2023/10/08 09:03:37;;;;;;;9.90;5.60;;;;;;;10.36;100.00;98249.16;107018;1277;24376;-88
2023/10/08 09:06:05;;;;;;;9.60;5.70;;;;;;;10.32;100.00;98247.48;107062;1277;22763;-88
2023/10/08 09:08:35;;;;;;;10.40;7.60;;;;;;;10.36;100.00;98247.38;107152;1277;22489;-86
2023/10/08 09:11:08;;;;;;;8.80;5.00;;;;;;;10.48;100.00;98252.46;107849;1278;23312;-88
2023/10/08 09:13:35;;;;;;;8.80;4.40;;;;;;;10.54;100.00;98253.66;106972;1277;22529;-88
2023/10/08 09:16:23;;;;;;;6.50;4.50;;;;;;;10.70;100.00;98257.83;107097;1277;23374;-85
2023/10/08 09:18:52;;;;;;;7.80;4.70;;;;;;;10.78;95.91;98258.15;107235;1277;22642;-89
2023/10/08 09:21:22;;;;;;;7.60;4.00;;;;;;;10.71;91.24;98261.63;107310;1278;22531;-89
2023/10/08 09:23:53;;;;;;;5.20;3.40;;;;;;;10.72;92.87;98262.55;107556;1277;24193;-88
2023/10/08 09:26:24;;;;;;;7.30;3.90;;;;;;;10.83;93.52;98264.20;107290;1277;22622;-89
2023/10/08 09:28:54;;;;;;;7.50;3.90;;;;;;;10.82;85.22;98272.22;107018;1277;24224;-87
2023/10/08 09:31:23;;;;;;;8.00;4.30;;;;;;;10.83;84.27;98271.88;107189;1277;24216;-89
2023/10/08 09:33:55;;;;;;;5.60;4.40;;;;;;;10.77;79.27;98282.20;107318;1277;25242;-88
2023/10/08 09:36:31;;;;;;;7.40;5.20;;;;;;;10.78;80.15;98282.02;107135;1277;23032;-87
2023/10/08 09:39:06;;;;;;;6.00;4.20;;;;;;;10.78;77.93;98287.27;107042;1277;22815;-89
2023/10/08 09:41:36;;;;;;;;;;;;;;;10.80;76.69;98289.06;107238;1277;22518;-86
2023/10/08 09:44:05;;;;;;;5.40;3.80;;;;;;;10.83;77.21;98292.53;107986;1277;25442;-88
2023/10/08 09:46:38;;;;;;;6.30;4.10;;;;;;;10.92;75.60;98299.90;109591;1277;22523;-87
2023/10/08 09:49:11;;;;;;;8.80;4.50;;;;;;;10.97;74.18;98299.72;108687;1277;22565;-87
2023/10/08 09:51:40;;;;;;;7.90;4.20;;;;;;;11.09;78.01;98299.33;109022;1277;22476;-88
2023/10/08 09:54:15;;;;;;;7.10;4.70;;;;;;;11.23;74.57;98302.22;107443;1277;23467;-89
2023/10/08 09:56:44;;;;;;;6.30;3.90;;;;;;;11.21;74.95;98303.98;108917;1277;22557;-87
2023/10/08 09:59:19;;;;;;;6.40;4.10;;;;;;;11.25;75.00;98303.47;110050;1277;24150;-85
2023/10/08 10:01:49;;;;;;;6.90;4.60;;;;;;;11.39;75.98;98300.23;110310;1277;22824;-87
2023/10/08 10:04:31;;;;;;;8.20;4.50;;;;;;;11.49;75.51;98306.50;110059;1277;22555;-88
2023/10/08 10:07:12;;;;;;;7.60;5.10;;;;;;;11.25;74.05;98309.13;107346;1277;22603;-89
2023/10/08 10:09:46;;;;;;;6.80;4.20;;;;;;;10.97;72.03;98310.45;107773;1277;22511;-89
2023/10/08 10:12:25;;;;;;;6.70;5.30;;;;;;;10.82;70.79;98310.17;108181;1277;25494;-86
2023/10/08 10:14:55;;;;;;;8.00;3.90;;;;;;;10.81;70.87;98311.37;107110;1277;22668;-90
2023/10/08 10:17:28;;;;;;;5.80;4.10;;;;;;;10.93;69.99;98315.59;107614;1277;22571;-87
2023/10/08 10:20:13;;;;;;;6.50;4.50;;;;;;;11.02;69.97;98321.60;107072;1277;22525;-87
2023/10/08 10:22:45;;;;;;;6.60;4.90;;;;;;;11.07;68.60;98325.09;107107;1277;22541;-87
2023/10/08 10:25:17;;;;;;;6.80;4.30;;;;;;;10.98;66.28;98333.14;108733;1277;22529;-86
2023/10/08 10:28:04;;;;;;;7.30;4.20;;;;;;;10.98;66.31;98332.98;107230;1277;22639;-88
2023/10/08 10:30:34;;;;;;;5.70;4.00;;;;;;;11.21;67.62;98331.00;107480;1277;24257;-88
2023/10/08 10:33:02;;;;;;;8.80;4.00;;;;;;;11.40;66.05;98335.24;107437;1277;22581;-87
2023/10/08 10:35:31;;;;;;;6.40;4.40;;;;;;;11.44;61.52;98337.45;107123;1277;22537;-89
2023/10/08 10:38:03;;;;;;;8.80;4.40;;;;;;;11.37;60.72;98333.02;107064;1277;23206;-88
2023/10/08 10:40:41;;;;;;;6.00;4.30;;;;;;;11.46;61.41;98327.49;107112;1277;25404;-89
2023/10/08 10:43:09;;;;;;;6.50;4.50;;;;;;;11.38;61.50;98335.85;107040;1277;22534;-88
2023/10/08 10:45:46;;;;;;;7.80;4.50;;;;;;;11.38;61.96;98332.19;107059;1277;22652;-89
2023/10/08 10:53:56;;;;;;;8.00;4.10;;;;;;;11.27;58.59;98347.04;107085;1266;22532;-90
2023/10/08 10:56:30;;;;;;;6.20;3.50;;;;;;;11.44;61.15;98350.61;107073;1276;24184;-88
2023/10/08 10:59:15;;;;;;;5.30;3.90;;;;;;;11.55;57.48;98351.42;107285;1277;22547;-86
2023/10/08 11:02:07;;;;;;;5.00;3.70;;;;;;;11.55;56.31;98361.96;107049;1277;22469;-89
2023/10/08 11:04:48;;;;;;;5.30;3.10;;;;;;;11.60;56.60;98358.20;107465;1277;24057;-88
2023/10/08 11:07:20;;;;;;;5.80;3.90;;;;;;;11.66;55.61;98362.11;106898;1277;22592;-87
2023/10/08 11:09:51;;;;;;;5.80;3.50;;;;;;;11.65;55.04;98365.69;107035;1277;24351;-89
2023/10/08 11:12:22;;;;;;;6.00;3.70;;;;;;;11.69;55.47;98357.35;107134;1278;22549;-88
2023/10/08 11:14:52;;;;;;;6.40;3.40;;;;;;;11.75;53.58;98369.98;107148;1278;24420;-87
2023/10/08 11:17:26;;;;;;;5.70;3.60;;;;;;;11.73;53.83;98365.52;107182;1277;24217;-89
2023/10/08 11:19:54;;;;;;;6.10;3.60;;;;;;;11.74;53.06;98361.36;107182;1277;22855;-88
2023/10/08 11:22:23;;;;;;;6.40;3.70;;;;;;;11.59;50.95;98369.71;107084;1277;24461;-88
2023/10/08 11:24:54;;;;;;;6.20;3.60;;;;;;;11.60;51.57;98376.02;107117;1277;24243;-89
2023/10/08 11:27:37;;;;;;;7.20;3.60;;;;;;;11.70;52.91;98365.20;107165;1277;22553;-88
2023/10/08 11:30:10;;;;;;;4.20;2.90;;;;;;;11.86;52.10;98374.55;107109;1277;25415;-89
2023/10/08 11:32:41;;;;;;;4.30;3.10;;;;;;;11.95;50.45;98376.30;107067;1277;24218;-87
2023/10/08 11:35:15;;;;;;;3.60;2.60;;;;;;;11.98;48.59;98369.50;107123;1277;22527;-87
2023/10/08 11:37:48;;;;;;;4.70;3.10;;;;;;;11.98;48.27;98369.00;107245;1277;22607;-87
2023/10/08 11:40:28;;;;;;;5.10;3.60;;;;;;;11.98;48.67;98375.15;108689;1277;22554;-87
2023/10/08 11:42:59;;;;;;;5.40;4.30;;;;;;;12.09;49.75;98376.38;107076;1277;22557;-89
2023/10/08 11:45:29;;;;;;;7.40;6.20;;;;;;;12.08;48.88;98367.00;107137;1274;22799;-89
2023/10/08 11:48:03;;;;;;;5.50;4.30;;;;;;;12.18;48.85;98367.32;107268;1277;26498;-88
2023/10/08 11:50:31;;;;;;;9.50;4.30;;;;;;;12.15;46.78;98371.74;107104;1277;24223;-86
2023/10/08 11:53:03;;;;;;;6.00;3.70;;;;;;;12.06;47.10;98380.16;107114;1277;23023;-88
2023/10/08 11:55:37;;;;;;;5.20;3.60;;;;;;;12.03;47.28;98371.90;107276;1277;22599;-89
2023/10/08 11:58:17;;;;;;;4.80;3.80;;;;;;;12.04;47.62;98375.41;107218;1272;22674;-89
2023/10/08 12:00:45;;;;;;;4.60;3.00;;;;;;;12.17;47.40;98377.96;107106;1277;24117;-88
2023/10/08 12:03:18;;;;;;;7.10;4.80;;;;;;;12.24;48.29;98386.65;107179;1277;22701;-89
2023/10/08 12:05:59;;;;;;;9.20;4.70;;;;;;;12.41;48.44;98396.95;107404;1277;22663;-89
2023/10/08 12:08:28;;;;;;;8.00;4.80;;;;;;;12.58;47.74;98392.04;108833;1278;23728;-88
2023/10/08 12:11:00;;;;;;;9.80;5.40;;;;;;;12.54;45.66;98393.52;110168;1278;22591;-86
2023/10/08 12:13:28;;;;;;;7.20;4.50;;;;;;;12.54;46.37;98397.96;108653;1278;23096;-88
2023/10/08 12:16:06;;;;;;;6.60;4.50;;;;;;;12.60;44.36;98393.36;106920;1277;25420;-88
2023/10/08 12:18:43;;;;;;;10.10;5.60;;;;;;;12.55;42.61;98406.30;107076;1277;22555;-88
2023/10/08 12:21:14;;;;;;;6.10;4.20;;;;;;;12.30;41.74;98414.91;107123;1277;25419;-89
2023/10/08 12:23:45;;;;;;;7.20;4.40;;;;;;;12.09;42.12;98411.19;106941;1278;24379;-88
2023/10/08 12:26:15;;;;;;;8.40;4.30;;;;;;;11.97;43.18;98411.80;107189;1278;22524;-87
2023/10/08 12:28:44;;;;;;;6.70;4.50;;;;;;;12.02;44.00;98413.66;107966;1278;25475;-86
2023/10/08 12:31:15;;;;;;;7.20;4.40;;;;;;;12.04;42.54;98414.75;107414;1278;26163;-87
2023/10/08 12:33:43;;;;;;;5.80;4.00;;;;;;;12.08;43.75;98415.56;107313;1278;22628;-87
2023/10/08 12:36:11;;;;;;;5.20;3.20;;;;;;;12.19;44.17;98411.49;107358;1277;26102;-88
2023/10/08 12:38:42;;;;;;;5.60;3.60;;;;;;;12.23;45.60;98413.20;107328;1278;22621;-88
2023/10/08 12:41:13;;;;;;;5.90;3.50;;;;;;;12.36;45.63;98421.20;107302;1277;22665;-88
2023/10/08 12:43:45;;;;;;;6.00;4.00;;;;;;;12.34;45.49;98429.73;107387;1278;24342;-88
2023/10/08 12:46:23;;;;;;;7.90;4.90;;;;;;;12.30;46.15;98424.48;107259;1277;24199;-89
2023/10/08 12:48:56;;;;;;;6.20;4.30;;;;;;;12.48;45.88;98422.48;107399;1277;22633;-88
2023/10/08 12:51:25;;;;;;;6.60;4.40;;;;;;;12.52;45.30;98424.11;107267;1277;22643;-87
2023/10/08 12:54:03;;;;;;;6.20;4.00;;;;;;;12.47;44.87;98427.05;107273;1277;23942;-89
2023/10/08 12:56:45;;;;;;;5.70;3.30;;;;;;;12.58;45.53;98424.86;107354;1278;25480;-88
2023/10/08 12:59:20;;;;;;;6.90;3.40;;;;;;;12.70;45.22;98426.31;107494;1277;22582;-87
2023/10/08 13:01:56;;;;;;;6.10;3.10;;;;;;;12.73;44.63;98427.65;107392;1277;22731;-86
2023/10/08 13:04:34;;;;;;;5.30;3.70;;;;;;;12.76;45.04;98427.55;107550;1273;23042;-87
2023/10/08 13:07:03;;;;;;;5.20;3.70;;;;;;;13.02;45.81;98425.84;107577;1277;22586;-89
2023/10/08 13:09:31;;;;;;;6.40;3.50;;;;;;;13.18;44.84;98422.81;107396;1277;22542;-87